Time;durP1;ratioP1;P1;durP2;ratioP2;P2;SDS_P1;SDS_P2;PMS_P1;PMS_P2;Temp;Humidity;BMP_temperature;BMP_pressure;BME280_temperature;BME280_humidity;BME280_pressure;Samples;Min_cycle;Max_cycle;Signal;HPM_P1;HPM_P2
2021/03/16 00:02:05;;;;;;;31.92;20.95;;;4.00;91.00;;;;;;5033473;28;20037;-77
2021/03/16 00:04:31;;;;;;;34.90;21.15;;;4.00;91.00;;;;;;5033248;28;20056;-78
2021/03/16 00:06:57;;;;;;;37.20;21.23;;;4.00;91.00;;;;;;5032987;28;20013;-79
2021/03/16 00:09:23;;;;;;;36.50;20.88;;;4.00;90.90;;;;;;5032431;28;20084;-78
2021/03/16 00:11:49;;;;;;;30.73;19.02;;;4.00;90.90;;;;;;5032908;28;20479;-78
2021/03/16 00:14:15;;;;;;;35.42;20.20;;;4.00;90.80;;;;;;5033209;28;20108;-78
2021/03/16 00:16:41;;;;;;;39.80;19.58;;;4.00;90.80;;;;;;5032969;28;20449;-80
2021/03/16 00:19:07;;;;;;;36.97;20.35;;;4.00;90.80;;;;;;5032725;28;20399;-77
2021/03/16 00:21:32;;;;;;;39.55;20.35;;;4.00;90.80;;;;;;5033055;28;20528;-78
2021/03/16 00:23:58;;;;;;;31.55;19.65;;;4.00;90.80;;;;;;5038372;28;20120;-77
2021/03/16 00:26:24;;;;;;;35.03;20.58;;;4.00;90.80;;;;;;5032719;28;20044;-77
2021/03/16 00:28:50;;;;;;;34.97;19.80;;;3.90;90.70;;;;;;5015461;28;20406;-78
2021/03/16 00:31:15;;;;;;;36.80;21.48;;;3.90;90.70;;;;;;5033565;28;20028;-79
2021/03/16 00:33:41;;;;;;;31.63;20.00;;;3.90;90.80;;;;;;5032656;28;20029;-78
2021/03/16 00:36:07;;;;;;;35.40;20.80;;;3.80;90.80;;;;;;5032465;28;20025;-79
2021/03/16 00:38:33;;;;;;;34.13;21.15;;;3.80;90.80;;;;;;5014788;28;20025;-77
2021/03/16 00:40:59;;;;;;;35.05;19.00;;;3.80;90.80;;;;;;5032594;28;20049;-78
2021/03/16 00:43:24;;;;;;;35.75;19.13;;;3.80;90.90;;;;;;5032464;28;20068;-78
2021/03/16 00:45:50;;;;;;;36.58;18.95;;;3.70;90.90;;;;;;5033140;28;20131;-77
2021/03/16 00:48:18;;;;;;;33.78;18.70;;;3.70;90.90;;;;;;5032733;28;20025;-77
2021/03/16 00:50:44;;;;;;;35.67;20.73;;;3.70;90.80;;;;;;5032851;28;20033;-77
2021/03/16 00:53:11;;;;;;;33.50;20.27;;;3.60;90.90;;;;;;5031884;28;20022;-78
2021/03/16 00:55:37;;;;;;;38.50;21.13;;;3.60;91.00;;;;;;5032574;28;20026;-76
2021/03/16 00:58:04;;;;;;;37.45;20.23;;;3.60;91.00;;;;;;5031400;28;20013;-77
2021/03/16 01:00:30;;;;;;;36.65;20.45;;;3.60;91.10;;;;;;5040445;28;20040;-77
2021/03/16 01:02:56;;;;;;;40.10;22.00;;;3.50;91.20;;;;;;5052088;28;20107;-77
2021/03/16 01:05:22;;;;;;;39.13;22.05;;;3.50;91.20;;;;;;5057873;28;20036;-77
2021/03/16 01:07:48;;;;;;;37.90;21.42;;;3.50;91.40;;;;;;5052369;28;20021;-76
2021/03/16 01:10:16;;;;;;;41.63;23.08;;;3.50;91.40;;;;;;5033918;28;20389;-78
2021/03/16 01:12:43;;;;;;;43.05;22.20;;;3.50;91.50;;;;;;5058766;28;20059;-77
2021/03/16 01:15:10;;;;;;;39.75;23.77;;;3.50;91.60;;;;;;5057047;28;20021;-78
2021/03/16 01:17:36;;;;;;;43.22;23.05;;;3.40;91.70;;;;;;5052320;28;20029;-77
2021/03/16 01:20:14;;;;;;;40.92;22.77;;;3.40;91.70;;;;;;5052233;28;20029;-77
2021/03/16 01:22:40;;;;;;;;;;;3.40;92.10;;;;;;5039148;28;20104;-77
2021/03/16 01:25:06;;;;;;;44.10;22.40;;;3.40;91.70;;;;;;5052113;28;20004;-78
2021/03/16 01:27:32;;;;;;;41.88;22.63;;;3.30;91.80;;;;;;5051924;28;20494;-78
2021/03/16 01:29:58;;;;;;;37.63;21.30;;;3.20;92.00;;;;;;5052023;28;20115;-76
2021/03/16 01:32:24;;;;;;;39.63;23.77;;;3.20;92.10;;;;;;5052768;28;20572;-75
2021/03/16 01:34:50;;;;;;;47.40;22.27;;;3.20;92.30;;;;;;5052862;28;20037;-76
2021/03/16 01:37:16;;;;;;;46.33;24.60;;;3.20;92.40;;;;;;5055227;28;20029;-75
2021/03/16 01:39:42;;;;;;;45.47;23.90;;;3.20;92.40;;;;;;5033948;28;20162;-76
2021/03/16 01:42:07;;;;;;;44.75;24.90;;;3.20;92.40;;;;;;5055970;28;20017;-76
2021/03/16 01:44:33;;;;;;;49.97;24.17;;;3.20;92.40;;;;;;5051584;28;20032;-76
2021/03/16 01:46:59;;;;;;;44.70;23.60;;;3.20;92.50;;;;;;5051969;28;20374;-76
2021/03/16 01:49:26;;;;;;;47.45;24.98;;;3.10;92.60;;;;;;5033727;28;20037;-76
2021/03/16 01:51:51;;;;;;;48.05;23.05;;;3.10;92.70;;;;;;5051873;28;20056;-76
2021/03/16 01:54:17;;;;;;;47.47;26.08;;;3.10;92.80;;;;;;5051761;28;20535;-76
2021/03/16 01:56:45;;;;;;;47.53;24.40;;;3.00;92.90;;;;;;5055762;28;20154;-78
2021/03/16 01:59:18;;;;;;;43.53;21.80;;;3.00;93.00;;;;;;5055340;28;20025;-75
2021/03/16 02:01:44;;;;;;;45.92;23.95;;;3.00;93.10;;;;;;5037441;28;20037;-77
2021/03/16 02:04:11;;;;;;;44.72;23.15;;;3.00;93.20;;;;;;5055325;28;20036;-78
2021/03/16 02:07:15;;;;;;;45.33;25.33;;;3.00;93.30;;;;;;5055287;28;20021;-76
2021/03/16 02:10:02;;;;;;;49.05;27.17;;;3.00;93.30;;;;;;5055042;28;20036;-78
2021/03/16 02:12:46;;;;;;;47.50;25.65;;;3.10;93.20;;;;;;5055088;28;20059;-75
2021/03/16 02:15:20;;;;;;;46.05;26.92;;;3.20;93.20;;;;;;5055144;28;20162;-77
2021/03/16 02:17:52;;;;;;;48.70;25.42;;;3.30;93.20;;;;;;5054949;28;20490;-77
2021/03/16 02:21:03;;;;;;;57.00;28.42;;;3.30;93.00;;;;;;5054981;28;20032;-75
2021/03/16 02:24:04;;;;;;;53.97;28.65;;;3.40;92.80;;;;;;5020875;28;20336;-76
2021/03/16 02:26:55;;;;;;;50.05;26.98;;;3.40;92.70;;;;;;5005641;28;20550;-78
2021/03/16 02:29:28;;;;;;;51.80;26.52;;;3.40;92.60;;;;;;5051302;28;20029;-77
2021/03/16 02:32:09;;;;;;;61.42;30.52;;;3.40;92.60;;;;;;5054824;28;20377;-76
2021/03/16 02:34:39;;;;;;;48.83;25.10;;;3.30;92.80;;;;;;5037171;28;20437;-76
2021/03/16 02:37:07;;;;;;;56.58;27.35;;;3.30;92.60;;;;;;5053185;28;20048;-76
2021/03/16 02:39:34;;;;;;;47.97;28.65;;;3.30;92.50;;;;;;5052697;28;20433;-77
2021/03/16 02:42:08;;;;;;;50.92;29.15;;;3.30;92.50;;;;;;5054726;28;20032;-79
2021/03/16 02:44:37;;;;;;;57.63;30.27;;;3.20;92.40;;;;;;5054862;28;20049;-77
2021/03/16 02:47:04;;;;;;;56.20;27.95;;;3.10;92.50;;;;;;5054768;28;20037;-77
2021/03/16 02:49:42;;;;;;;53.30;31.20;;;3.20;92.70;;;;;;5054519;28;20067;-78
2021/03/16 02:52:08;;;;;;;;;;;3.20;92.70;;;;;;5055032;28;20025;-77
2021/03/16 02:54:34;;;;;;;59.40;27.00;;;3.20;92.60;;;;;;5036738;28;19904;-76
2021/03/16 02:57:02;;;;;;;60.10;29.50;;;3.10;92.60;;;;;;5054469;28;20127;-77
2021/03/16 02:59:29;;;;;;;51.42;28.50;;;3.10;92.70;;;;;;5054405;28;20505;-75
2021/03/16 03:01:57;;;;;;;61.03;28.35;;;3.10;92.80;;;;;;5044244;28;20053;-77
2021/03/16 03:04:24;;;;;;;54.35;29.77;;;3.20;92.70;;;;;;5016847;28;20067;-78
2021/03/16 03:06:51;;;;;;;;;;;3.20;92.70;;;;;;5031043;28;20484;-77
2021/03/16 03:09:17;;;;;;;53.83;27.97;;;3.30;92.70;;;;;;5034609;28;20011;-77
2021/03/16 03:11:42;;;;;;;59.45;31.63;;;3.20;92.70;;;;;;5019319;28;20057;-78
2021/03/16 03:14:09;;;;;;;56.55;33.65;;;3.20;92.70;;;;;;5054287;28;20055;-76
2021/03/16 03:16:35;;;;;;;70.97;32.67;;;3.20;92.60;;;;;;5039176;28;20025;-78
2021/03/16 03:19:01;;;;;;;58.95;31.33;;;3.20;92.60;;;;;;5034485;28;20022;-76
2021/03/16 03:21:35;;;;;;;65.05;32.53;;;3.10;92.70;;;;;;5047184;28;20449;-77
2021/03/16 03:24:07;;;;;;;61.75;32.47;;;3.10;92.90;;;;;;5034608;28;20045;-77
2021/03/16 03:26:56;;;;;;;77.75;35.20;;;3.10;92.90;;;;;;5047296;28;20025;-76
2021/03/16 03:29:24;;;;;;;62.75;33.35;;;3.00;93.00;;;;;;5030468;28;20033;-80
2021/03/16 03:31:51;;;;;;;70.70;34.42;;;3.00;93.00;;;;;;5033968;28;20095;-79
2021/03/16 03:34:19;;;;;;;68.10;34.38;;;3.10;93.10;;;;;;5016596;28;20075;-78
2021/03/16 03:36:49;;;;;;;67.15;35.95;;;3.20;93.10;;;;;;5034376;28;20076;-76
2021/03/16 03:39:15;;;;;;;73.80;33.63;;;3.20;93.00;;;;;;5039862;28;20025;-79
2021/03/16 03:41:41;;;;;;;79.13;35.65;;;3.20;92.90;;;;;;5054932;28;20033;-79
2021/03/16 03:44:08;;;;;;;69.47;32.75;;;3.30;92.80;;;;;;5036297;28;20025;-79
2021/03/16 03:46:35;;;;;;;;;;;3.30;92.70;;;;;;5016415;28;20024;-78
2021/03/16 03:49:06;;;;;;;60.20;34.67;;;3.30;92.60;;;;;;5033472;28;19986;-79
2021/03/16 03:51:38;;;;;;;68.60;33.72;;;3.30;92.70;;;;;;5016287;28;20021;-79
2021/03/16 03:54:05;;;;;;;69.53;34.88;;;3.30;92.60;;;;;;5034527;28;20024;-79
2021/03/16 03:56:34;;;;;;;63.53;34.20;;;3.30;92.60;;;;;;5018410;28;20478;-78
2021/03/16 03:59:02;;;;;;;62.25;32.50;;;3.40;92.70;;;;;;5039966;28;20029;-77
2021/03/16 04:01:30;;;;;;;66.68;33.47;;;3.40;92.70;;;;;;5032084;28;20045;-77
2021/03/16 04:03:56;;;;;;;71.13;36.78;;;3.40;92.50;;;;;;5040512;28;20025;-80
2021/03/16 04:06:24;;;;;;;71.97;37.97;;;3.30;92.60;;;;;;5037773;28;20030;-77
2021/03/16 04:08:51;;;;;;;77.47;34.65;;;3.30;92.60;;;;;;5034888;28;20073;-79
2021/03/16 04:11:18;;;;;;;;;;;3.40;92.60;;;;;;5034392;28;20438;-79
2021/03/16 04:13:45;;;;;;;70.82;34.60;;;3.50;92.50;;;;;;5033604;28;19905;-79
2021/03/16 04:16:12;;;;;;;69.28;32.85;;;3.50;92.50;;;;;;5034002;28;20022;-80
2021/03/16 04:18:39;;;;;;;77.28;37.42;;;3.50;92.40;;;;;;5032847;28;20418;-79
2021/03/16 04:21:06;;;;;;;82.13;37.85;;;3.50;92.40;;;;;;5033153;28;20423;-79
2021/03/16 04:23:32;;;;;;;71.25;37.55;;;3.50;92.40;;;;;;5032950;28;20384;-79
2021/03/16 04:25:58;;;;;;;68.20;35.40;;;3.50;92.30;;;;;;5014784;28;20029;-78
2021/03/16 04:28:25;;;;;;;72.35;36.83;;;3.60;92.30;;;;;;5038431;28;20391;-76
2021/03/16 04:30:52;;;;;;;69.75;38.00;;;3.60;92.30;;;;;;5030184;28;20079;-78
2021/03/16 04:33:19;;;;;;;69.87;37.53;;;3.60;92.40;;;;;;5044329;28;20414;-78
2021/03/16 04:35:45;;;;;;;79.68;36.83;;;3.60;92.20;;;;;;5046635;28;20742;-80
2021/03/16 04:38:12;;;;;;;69.47;34.17;;;3.60;92.20;;;;;;5043578;28;22129;-77
2021/03/16 04:40:38;;;;;;;70.78;35.08;;;3.60;92.10;;;;;;5026877;28;20032;-79
2021/03/16 04:43:07;;;;;;;74.50;36.63;;;3.60;92.20;;;;;;5048006;28;20021;-79
2021/03/16 04:45:33;;;;;;;76.07;37.28;;;3.60;92.20;;;;;;5039029;28;20036;-77
2021/03/16 04:47:59;;;;;;;72.70;35.95;;;3.60;92.10;;;;;;5048674;28;20386;-78
2021/03/16 04:50:25;;;;;;;70.78;36.38;;;3.60;92.10;;;;;;5043538;28;20461;-80
2021/03/16 04:52:52;;;;;;;63.65;34.60;;;3.70;92.10;;;;;;5046852;28;20410;-77
2021/03/16 04:55:18;;;;;;;63.25;33.15;;;3.70;92.00;;;;;;5044764;28;20029;-78
2021/03/16 04:57:43;;;;;;;66.63;32.75;;;3.70;92.00;;;;;;5045976;28;20020;-80
2021/03/16 05:00:10;;;;;;;61.95;32.65;;;3.70;92.00;;;;;;5046926;28;20292;-78
2021/03/16 05:02:36;;;;;;;58.95;32.70;;;3.70;91.90;;;;;;5043354;28;20021;-78
2021/03/16 05:05:03;;;;;;;69.22;34.90;;;3.70;91.90;;;;;;5043177;28;20474;-78
2021/03/16 05:07:29;;;;;;;62.97;32.55;;;3.70;91.90;;;;;;5014286;28;20029;-78
2021/03/16 05:09:55;;;;;;;61.72;32.45;;;3.60;91.90;;;;;;5031851;28;20034;-77
2021/03/16 05:12:21;;;;;;;75.10;34.78;;;3.50;92.10;;;;;;5032106;28;20025;-76
2021/03/16 05:14:46;;;;;;;76.88;36.78;;;3.50;92.40;;;;;;5028775;28;20063;-80
2021/03/16 05:17:12;;;;;;;72.95;35.75;;;3.70;92.40;;;;;;5022938;28;20017;-76
2021/03/16 05:19:39;;;;;;;71.53;36.60;;;3.80;92.20;;;;;;5033691;28;20033;-80
2021/03/16 05:22:05;;;;;;;77.22;36.30;;;3.90;92.30;;;;;;5038316;28;20032;-79
2021/03/16 05:24:31;;;;;;;76.10;38.10;;;4.00;91.90;;;;;;5038629;28;20029;-79
2021/03/16 05:26:57;;;;;;;84.93;36.78;;;3.90;91.60;;;;;;5038094;28;20036;-79
2021/03/16 05:29:23;;;;;;;90.32;40.70;;;4.00;91.70;;;;;;5038110;28;20033;-78
2021/03/16 05:31:49;;;;;;;87.30;39.38;;;4.00;91.60;;;;;;5040257;28;20026;-78
2021/03/16 05:34:15;;;;;;;83.30;35.65;;;4.00;91.70;;;;;;5043741;28;20021;-78
2021/03/16 05:36:41;;;;;;;75.20;37.22;;;4.00;91.50;;;;;;5039871;28;20400;-77
2021/03/16 05:39:07;;;;;;;77.43;33.78;;;3.90;91.60;;;;;;5043474;28;20032;-77
2021/03/16 05:41:35;;;;;;;74.50;38.90;;;3.80;91.60;;;;;;5046520;28;20547;-80
2021/03/16 05:44:02;;;;;;;71.88;35.05;;;3.70;91.80;;;;;;5052250;28;20045;-79
2021/03/16 05:46:29;;;;;;;74.75;36.83;;;3.60;92.00;;;;;;5043823;28;20029;-78
2021/03/16 05:49:01;;;;;;;80.65;36.95;;;3.50;92.10;;;;;;5035445;28;20463;-79
2021/03/16 05:51:27;;;;;;;76.60;36.85;;;3.50;92.30;;;;;;5042967;28;20029;-78
2021/03/16 05:53:54;;;;;;;70.07;37.38;;;3.50;92.40;;;;;;5048457;28;20021;-78
2021/03/16 05:56:20;;;;;;;83.55;37.00;;;3.50;92.50;;;;;;5050858;28;20104;-80
2021/03/16 05:58:47;;;;;;;74.57;38.45;;;3.50;92.60;;;;;;5030606;28;20130;-79
2021/03/16 06:01:14;;;;;;;70.80;36.97;;;3.50;92.70;;;;;;5049052;28;20071;-79
2021/03/16 06:03:41;;;;;;;66.93;35.42;;;3.50;92.60;;;;;;5050219;28;20029;-79
2021/03/16 06:06:09;;;;;;;64.93;35.22;;;3.50;92.50;;;;;;5039543;28;20037;-79
2021/03/16 06:08:35;;;;;;;72.43;36.33;;;3.60;92.70;;;;;;5035129;28;20040;-79
2021/03/16 06:11:00;;;;;;;67.38;34.72;;;3.60;92.70;;;;;;5035767;28;20113;-80
2021/03/16 06:13:26;;;;;;;65.82;33.90;;;3.60;92.60;;;;;;5035387;28;20327;-80
2021/03/16 06:15:55;;;;;;;63.35;32.35;;;3.70;92.70;;;;;;5035438;28;20026;-80
2021/03/16 06:18:28;;;;;;;56.00;31.77;;;3.70;92.50;;;;;;5035703;28;20024;-78
2021/03/16 06:21:02;;;;;;;63.88;33.38;;;3.70;92.70;;;;;;5018451;28;20499;-79
2021/03/16 06:23:36;;;;;;;53.05;32.30;;;3.80;92.60;;;;;;5035536;28;20036;-80
2021/03/16 06:26:08;;;;;;;47.58;30.02;;;3.80;92.80;;;;;;5035080;28;20040;-80
2021/03/16 06:28:35;;;;;;;54.05;30.70;;;3.90;92.50;;;;;;5035283;28;20021;-78
2021/03/16 06:31:04;;;;;;;54.90;31.17;;;4.00;92.50;;;;;;5035074;28;20033;-79
2021/03/16 06:33:32;;;;;;;41.83;23.88;;;4.10;92.30;;;;;;5016670;28;20486;-80
2021/03/16 06:36:06;;;;;;;39.78;22.17;;;4.20;92.20;;;;;;5035893;28;20425;-80
2021/03/16 06:38:33;;;;;;;42.03;25.75;;;4.30;92.10;;;;;;5035456;28;20039;-80
2021/03/16 06:41:14;;;;;;;40.85;22.52;;;4.30;92.00;;;;;;5034360;28;20077;-78
2021/03/16 06:43:41;;;;;;;36.28;20.40;;;4.40;91.90;;;;;;5034647;28;20040;-79
2021/03/16 06:46:07;;;;;;;43.25;22.25;;;4.50;91.70;;;;;;5034888;28;20045;-80
2021/03/16 06:48:38;;;;;;;40.35;20.95;;;4.60;91.50;;;;;;5034575;28;20068;-78
2021/03/16 06:51:13;;;;;;;37.50;21.60;;;4.70;91.30;;;;;;5016081;28;20033;-77
2021/03/16 06:53:38;;;;;;;37.92;21.58;;;4.70;91.20;;;;;;5044573;28;20363;-78
2021/03/16 06:56:05;;;;;;;38.70;23.45;;;4.80;91.10;;;;;;5048670;28;20032;-77
2021/03/16 06:58:33;;;;;;;41.42;23.25;;;4.80;91.00;;;;;;5049024;28;20029;-81
2021/03/16 07:01:03;;;;;;;41.30;23.25;;;4.90;90.80;;;;;;5031087;28;20046;-79
2021/03/16 07:03:30;;;;;;;38.92;23.83;;;4.90;90.70;;;;;;5033859;28;20022;-80
2021/03/16 07:06:09;;;;;;;35.05;21.02;;;5.00;90.60;;;;;;5019475;28;20079;-79
2021/03/16 07:08:35;;;;;;;36.80;20.25;;;4.90;90.00;;;;;;5033746;28;20411;-79
2021/03/16 07:11:06;;;;;;;39.85;24.00;;;4.60;90.10;;;;;;5034191;28;20043;-79
2021/03/16 07:13:33;;;;;;;37.65;22.08;;;4.50;90.20;;;;;;5033863;28;20029;-79
2021/03/16 07:16:01;;;;;;;48.55;26.90;;;4.40;90.50;;;;;;5034508;28;20462;-80
2021/03/16 07:18:28;;;;;;;35.63;21.63;;;4.50;90.80;;;;;;5033962;28;20099;-79
2021/03/16 07:20:58;;;;;;;44.15;23.13;;;4.60;90.80;;;;;;5034015;28;20377;-78
2021/03/16 07:23:27;;;;;;;48.67;25.10;;;4.60;90.70;;;;;;5033708;28;20471;-77
2021/03/16 07:25:53;;;;;;;39.15;23.55;;;4.70;90.80;;;;;;5033899;28;20546;-78
2021/03/16 07:28:19;;;;;;;41.95;24.65;;;4.90;90.90;;;;;;5033679;28;20049;-78
2021/03/16 07:30:45;;;;;;;41.05;26.70;;;5.00;90.60;;;;;;5033451;28;20033;-78
2021/03/16 07:33:14;;;;;;;49.17;26.88;;;5.00;90.30;;;;;;5033972;28;20021;-78
2021/03/16 07:35:43;;;;;;;39.80;26.52;;;4.90;90.20;;;;;;4999555;28;20055;-79
2021/03/16 07:38:09;;;;;;;38.03;23.10;;;4.80;90.00;;;;;;5033646;28;20084;-79
2021/03/16 07:40:39;;;;;;;31.73;20.93;;;4.80;90.40;;;;;;5033490;28;20017;-77
2021/03/16 07:43:10;;;;;;;53.13;22.55;;;4.90;90.50;;;;;;5033457;28;20018;-80
2021/03/16 07:45:39;;;;;;;39.78;22.63;;;4.90;90.20;;;;;;5033162;28;20076;-78
2021/03/16 07:48:19;;;;;;;35.00;20.98;;;5.00;90.10;;;;;;5033436;28;20024;-77
2021/03/16 07:50:45;;;;;;;36.00;20.17;;;5.00;90.00;;;;;;5033750;28;20479;-77
2021/03/16 07:53:29;;;;;;;30.08;19.90;;;5.00;90.10;;;;;;5032951;28;20083;-79
2021/03/16 07:56:08;;;;;;;32.63;18.13;;;5.10;90.30;;;;;;5033233;28;20025;-78
2021/03/16 07:58:45;;;;;;;36.00;19.52;;;5.10;89.70;;;;;;5033366;28;20025;-79
2021/03/16 08:01:10;;;;;;;28.63;18.70;;;5.10;90.10;;;;;;5042211;28;20044;-78
2021/03/16 08:03:37;;;;;;;32.47;19.98;;;5.20;90.10;;;;;;5033595;28;20382;-78
2021/03/16 08:06:19;;;;;;;31.40;19.27;;;5.20;89.80;;;;;;5033096;28;20466;-77
2021/03/16 08:08:45;;;;;;;35.20;19.52;;;5.20;89.20;;;;;;5033078;28;20013;-77
2021/03/16 08:11:12;;;;;;;28.25;18.30;;;5.10;89.40;;;;;;5033163;28;20036;-78
2021/03/16 08:13:38;;;;;;;27.38;17.52;;;4.90;89.80;;;;;;5028935;28;20116;-78
2021/03/16 08:16:16;;;;;;;25.95;17.38;;;4.80;90.20;;;;;;5032945;28;20035;-78
2021/03/16 08:18:42;;;;;;;;;;;4.70;90.30;;;;;;5032927;28;20542;-77
2021/03/16 08:21:09;;;;;;;28.50;18.52;;;4.50;90.50;;;;;;5025409;28;19931;-77
2021/03/16 08:23:35;;;;;;;22.67;15.20;;;4.50;91.10;;;;;;5018001;28;20025;-77
2021/03/16 08:26:08;;;;;;;24.90;15.55;;;4.70;91.10;;;;;;5032768;28;20105;-77
2021/03/16 08:28:35;;;;;;;23.55;13.50;;;4.70;90.80;;;;;;5014655;28;20036;-77
2021/03/16 08:31:01;;;;;;;19.60;13.27;;;4.60;90.70;;;;;;5022318;28;20052;-77
2021/03/16 08:33:28;;;;;;;19.90;12.95;;;4.50;91.00;;;;;;5038877;28;20405;-79
2021/03/16 08:35:56;;;;;;;18.13;13.35;;;4.50;91.00;;;;;;5021221;28;20040;-78
2021/03/16 08:38:33;;;;;;;20.92;15.43;;;4.60;90.90;;;;;;5022440;28;20029;-78
2021/03/16 08:41:05;;;;;;;22.73;14.63;;;4.50;90.70;;;;;;5046692;28;20025;-79
2021/03/16 08:43:31;;;;;;;25.42;16.58;;;4.40;90.70;;;;;;5014690;28;20083;-79
2021/03/16 08:46:05;;;;;;;35.20;19.33;;;4.30;91.00;;;;;;5032158;28;20058;-79
2021/03/16 08:48:32;;;;;;;26.50;19.10;;;4.10;91.20;;;;;;5032264;28;20445;-81
2021/03/16 08:50:58;;;;;;;29.27;18.27;;;4.10;91.40;;;;;;5031847;28;20026;-78
2021/03/16 08:53:24;;;;;;;29.85;20.73;;;4.00;91.50;;;;;;5032159;28;20022;-78
2021/03/16 08:55:52;;;;;;;29.65;21.45;;;4.00;91.80;;;;;;5027935;28;20059;-78
2021/03/16 08:58:18;;;;;;;30.75;21.10;;;4.00;91.90;;;;;;5032114;28;20348;-78
2021/03/16 09:00:48;;;;;;;36.92;26.67;;;4.00;91.70;;;;;;5040355;28;20072;-79
2021/03/16 09:03:14;;;;;;;38.55;24.85;;;3.90;92.00;;;;;;5039445;28;20373;-79
2021/03/16 09:05:41;;;;;;;43.30;27.25;;;3.90;92.40;;;;;;5039109;28;20036;-76
2021/03/16 09:08:08;;;;;;;43.23;26.83;;;3.90;92.60;;;;;;5032102;28;20021;-79
2021/03/16 09:10:34;;;;;;;38.65;25.95;;;3.90;92.70;;;;;;5031919;28;20825;-79
2021/03/16 09:13:01;;;;;;;42.63;27.45;;;4.00;92.90;;;;;;5033125;28;20125;-78
2021/03/16 09:15:31;;;;;;;41.33;27.65;;;4.10;93.00;;;;;;5032555;28;20036;-79
2021/03/16 09:17:59;;;;;;;48.72;28.13;;;4.10;93.00;;;;;;5032822;28;20018;-78
2021/03/16 09:20:31;;;;;;;51.70;32.55;;;4.00;93.00;;;;;;5033582;28;20463;-78
2021/03/16 09:23:05;;;;;;;40.38;27.65;;;4.00;93.00;;;;;;5033442;28;20061;-78
2021/03/16 09:25:34;;;;;;;39.92;25.17;;;4.00;92.90;;;;;;5032841;28;20045;-79
2021/03/16 09:28:01;;;;;;;39.35;26.77;;;4.00;93.00;;;;;;5032668;28;20029;-80
2021/03/16 09:30:30;;;;;;;39.03;26.50;;;4.00;93.00;;;;;;5032423;28;20068;-80
2021/03/16 09:32:56;;;;;;;31.67;23.20;;;4.00;92.80;;;;;;5031806;28;20056;-79
2021/03/16 09:35:23;;;;;;;38.50;24.38;;;3.90;93.00;;;;;;5032946;28;20049;-80
2021/03/16 09:37:51;;;;;;;36.27;23.27;;;3.80;93.40;;;;;;5034141;28;20100;-79
2021/03/16 09:40:18;;;;;;;;;;;3.80;93.40;;;;;;5032037;28;20265;-80
2021/03/16 09:42:48;;;;;;;28.92;21.30;;;3.90;93.20;;;;;;5031853;28;19959;-80
2021/03/16 09:45:17;;;;;;;34.42;20.48;;;3.70;93.30;;;;;;5031919;28;20060;-79
2021/03/16 09:47:43;;;;;;;29.45;21.25;;;3.60;93.60;;;;;;5031609;28;20025;-78
2021/03/16 09:50:19;;;;;;;33.25;22.02;;;3.60;93.60;;;;;;5014239;28;20041;-78
2021/03/16 09:52:47;;;;;;;41.05;26.15;;;3.60;93.30;;;;;;5013587;28;20038;-79
2021/03/16 09:55:26;;;;;;;;;;;;;;;;;;;;;
2021/03/16 09:57:52;;;;;;;32.83;21.75;;;3.70;93.40;;;;;;5031314;28;20029;-80
2021/03/16 10:00:19;;;;;;;32.58;21.27;;;3.70;93.50;;;;;;5037496;28;20105;-81
2021/03/16 10:02:45;;;;;;;29.87;21.03;;;3.80;93.30;;;;;;5051217;28;20014;-78
2021/03/16 10:05:18;;;;;;;31.88;21.42;;;3.70;93.20;;;;;;5033364;28;20408;-79
2021/03/16 10:07:51;;;;;;;30.05;20.13;;;3.70;93.30;;;;;;5051331;28;20052;-79
2021/03/16 10:10:23;;;;;;;24.25;18.30;;;3.70;93.30;;;;;;5033133;28;20497;-79
2021/03/16 10:13:10;;;;;;;30.02;18.67;;;3.70;93.30;;;;;;5051403;28;20460;-79
2021/03/16 10:15:37;;;;;;;29.27;17.67;;;3.70;93.10;;;;;;5039045;28;20025;-79
2021/03/16 10:18:06;;;;;;;23.80;15.85;;;3.60;93.20;;;;;;5055088;28;20120;-80
2021/03/16 10:20:37;;;;;;;28.48;18.45;;;3.60;93.10;;;;;;5036891;28;20049;-79
2021/03/16 10:23:09;;;;;;;27.92;19.13;;;3.60;93.00;;;;;;5037324;28;20036;-80
2021/03/16 10:25:36;;;;;;;26.88;17.23;;;3.70;93.10;;;;;;5055419;28;20023;-79
2021/03/16 10:28:13;;;;;;;36.03;21.17;;;3.70;93.10;;;;;;5037537;28;20108;-81
2021/03/16 10:30:43;;;;;;;22.95;15.70;;;3.80;93.20;;;;;;5055743;28;20506;-79
2021/03/16 10:33:16;;;;;;;25.00;16.63;;;3.90;93.00;;;;;;5054972;28;20104;-79
2021/03/16 10:35:42;;;;;;;23.83;15.95;;;4.00;92.90;;;;;;5054448;28;20020;-79
2021/03/16 10:38:08;;;;;;;25.73;15.73;;;3.90;92.60;;;;;;5036440;28;20127;-79
2021/03/16 10:40:35;;;;;;;29.15;18.77;;;4.00;92.70;;;;;;5054833;28;20044;-80
2021/03/16 10:43:02;;;;;;;24.88;15.35;;;4.10;92.50;;;;;;5037118;28;20017;-78
2021/03/16 10:45:29;;;;;;;25.47;15.70;;;4.10;92.30;;;;;;5054551;28;20485;-78
2021/03/16 10:47:55;;;;;;;24.33;16.40;;;4.10;92.60;;;;;;5055019;28;20029;-78
2021/03/16 10:50:22;;;;;;;23.65;16.00;;;4.10;92.40;;;;;;5054634;28;20049;-80
2021/03/16 10:52:48;;;;;;;19.25;15.15;;;4.20;92.30;;;;;;5054067;28;20382;-79
2021/03/16 10:55:14;;;;;;;21.63;14.55;;;4.10;91.90;;;;;;5054368;28;20040;-80
2021/03/16 10:57:40;;;;;;;21.73;14.68;;;3.90;91.30;;;;;;5054969;28;20485;-79
2021/03/16 11:00:08;;;;;;;19.38;14.23;;;3.60;91.80;;;;;;5054324;28;20040;-79
2021/03/16 11:02:34;;;;;;;26.65;16.58;;;3.60;92.40;;;;;;5038520;28;20053;-79
2021/03/16 11:05:25;;;;;;;18.92;14.50;;;3.50;92.80;;;;;;5034271;28;20118;-81
2021/03/16 11:07:52;;;;;;;21.38;13.52;;;3.70;92.60;;;;;;5032648;28;20030;-81
2021/03/16 11:10:18;;;;;;;26.00;17.15;;;3.60;92.90;;;;;;5032867;28;20118;-80
2021/03/16 11:12:44;;;;;;;21.98;15.52;;;3.70;92.80;;;;;;5034333;28;20505;-81
2021/03/16 11:15:10;;;;;;;22.25;15.35;;;3.70;93.00;;;;;;5034378;28;20060;-79
2021/03/16 11:18:05;;;;;;;21.80;15.68;;;3.70;92.50;;;;;;5032738;28;20467;-81
2021/03/16 11:20:31;;;;;;;28.67;18.33;;;3.60;92.40;;;;;;5034404;28;20032;-79
2021/03/16 11:22:57;;;;;;;34.33;20.42;;;3.50;92.50;;;;;;5042543;28;20515;-77
2021/03/16 11:25:25;;;;;;;31.50;21.70;;;3.40;92.60;;;;;;5033072;28;20491;-79
2021/03/16 11:27:52;;;;;;;27.40;17.42;;;3.30;92.80;;;;;;5032866;28;20557;-80
2021/03/16 11:30:18;;;;;;;31.48;18.23;;;3.30;93.00;;;;;;5033610;28;20029;-81
2021/03/16 11:32:47;;;;;;;28.00;17.50;;;3.30;93.00;;;;;;5033903;28;20037;-79
2021/03/16 11:35:13;;;;;;;28.27;18.77;;;3.20;93.20;;;;;;5033585;28;20464;-79
2021/03/16 11:37:39;;;;;;;28.75;19.38;;;3.40;93.30;;;;;;5034030;28;20125;-80
2021/03/16 11:40:05;;;;;;;26.52;17.92;;;3.40;93.10;;;;;;5033615;28;20028;-79
2021/03/16 11:42:31;;;;;;;23.00;16.10;;;3.50;93.00;;;;;;5032157;28;20024;-78
2021/03/16 11:45:00;;;;;;;26.90;17.55;;;3.50;92.90;;;;;;5033710;28;20101;-79
2021/03/16 11:47:26;;;;;;;23.17;16.58;;;3.60;93.00;;;;;;5032118;28;20033;-79
2021/03/16 11:49:52;;;;;;;26.23;18.45;;;3.60;92.80;;;;;;5033324;28;20113;-78
2021/03/16 11:52:18;;;;;;;26.75;18.48;;;3.50;93.20;;;;;;5033021;28;20494;-79
2021/03/16 11:54:44;;;;;;;23.45;16.98;;;3.40;92.80;;;;;;5032342;28;20037;-78
2021/03/16 11:57:10;;;;;;;28.30;18.52;;;3.30;92.80;;;;;;5033526;28;20446;-79
2021/03/16 11:59:36;;;;;;;26.47;20.23;;;3.20;92.90;;;;;;5033215;28;20029;-77
2021/03/16 12:02:22;;;;;;;26.17;15.98;;;3.10;93.20;;;;;;5053691;28;20631;-79
2021/03/16 12:04:55;;;;;;;31.88;20.92;;;3.00;93.10;;;;;;5018602;28;20107;-79
2021/03/16 12:07:21;;;;;;;27.42;17.25;;;3.00;93.40;;;;;;5052982;28;20029;-79
2021/03/16 12:09:47;;;;;;;27.63;17.33;;;3.10;93.60;;;;;;5053084;28;20051;-78
2021/03/16 12:12:13;;;;;;;23.55;16.02;;;3.20;93.50;;;;;;5035456;28;20024;-77
2021/03/16 12:14:40;;;;;;;28.58;18.35;;;3.20;93.10;;;;;;5035462;28;20052;-78
2021/03/16 12:17:06;;;;;;;30.70;19.58;;;3.10;93.20;;;;;;5053725;28;20055;-79
2021/03/16 12:19:31;;;;;;;27.13;17.85;;;3.10;93.40;;;;;;5035037;28;20454;-78
2021/03/16 12:21:57;;;;;;;29.80;17.98;;;3.20;93.80;;;;;;5034451;28;20021;-79
2021/03/16 12:24:26;;;;;;;28.00;18.65;;;3.30;93.40;;;;;;5052636;28;20532;-78
2021/03/16 12:26:52;;;;;;;26.17;17.83;;;3.40;93.30;;;;;;5034151;28;20124;-79
2021/03/16 12:29:18;;;;;;;32.72;21.67;;;3.40;93.10;;;;;;5052417;28;20040;-77
2021/03/16 12:31:50;;;;;;;33.38;21.10;;;3.50;93.10;;;;;;5052830;28;20032;-78
2021/03/16 12:34:16;;;;;;;30.73;21.08;;;3.40;93.20;;;;;;5039125;28;20024;-79
2021/03/16 12:36:41;;;;;;;43.08;25.65;;;3.30;92.80;;;;;;5052752;28;20017;-79
2021/03/16 12:39:07;;;;;;;34.15;22.25;;;3.20;93.10;;;;;;5034465;28;20413;-80
2021/03/16 12:41:35;;;;;;;34.42;22.15;;;3.20;93.10;;;;;;5052617;28;20044;-79
2021/03/16 12:44:01;;;;;;;36.33;22.83;;;3.20;93.00;;;;;;5052588;28;20079;-80
2021/03/16 12:46:28;;;;;;;33.30;22.25;;;3.10;93.00;;;;;;5052433;28;20104;-78
2021/03/16 12:48:55;;;;;;;38.35;22.73;;;3.10;93.40;;;;;;5052343;28;20048;-79